Time;durP1;ratioP1;P1;durP2;ratioP2;P2;SDS_P1;SDS_P2;PMS_P1;PMS_P2;Temp;Humidity;BMP_temperature;BMP_pressure;BME280_temperature;BME280_humidity;BME280_pressure;Samples;Min_cycle;Max_cycle;Signal;HPM_P1;HPM_P2
2021/03/30 00:00:27;;;;;;;7.22;2.60;;;;;;;;;;5074594;28;20055;-87
2021/03/30 00:02:53;;;;;;;7.97;2.63;;;;;;;;;;5092397;28;20385;-86
2021/03/30 00:05:19;;;;;;;7.63;2.90;;;;;;;;;;5080790;28;20048;-86
2021/03/30 00:07:45;;;;;;;8.88;2.85;;;;;;;;;;5069845;28;20071;-88
2021/03/30 00:10:14;;;;;;;6.70;2.60;;;;;;;;;;5069536;28;20055;-86
2021/03/30 00:12:40;;;;;;;7.85;2.75;;;;;;;;;;5073046;28;20067;-87
2021/03/30 00:15:08;;;;;;;4.65;2.47;;;;;;;;;;5089254;28;20082;-87
2021/03/30 00:17:35;;;;;;;4.82;2.50;;;;;;;;;;5091148;28;20044;-88
2021/03/30 00:20:01;;;;;;;6.15;2.40;;;;;;;;;;5074086;28;20098;-88
2021/03/30 00:22:27;;;;;;;6.00;2.38;;;;;;;;;;5073707;28;20056;-86
2021/03/30 00:24:53;;;;;;;5.20;2.35;;;;;;;;;;5075449;28;20048;-89
2021/03/30 00:27:19;;;;;;;4.63;2.22;;;;;;;;;;5087004;28;20536;-86
2021/03/30 00:29:46;;;;;;;5.25;2.50;;;;;;;;;;5072167;28;20052;-85
2021/03/30 00:32:13;;;;;;;5.55;2.38;;;;;;;;;;5071515;28;20044;-86
2021/03/30 00:34:40;;;;;;;6.45;2.22;;;;;;;;;;5089394;28;20048;-86
2021/03/30 00:37:06;;;;;;;8.88;2.75;;;;;;;;;;5083488;28;20051;-86
2021/03/30 00:39:33;;;;;;;5.97;2.53;;;;;;;;;;5070108;28;20048;-86
2021/03/30 00:41:59;;;;;;;10.18;2.70;;;;;;;;;;5072605;28;20045;-85
2021/03/30 00:44:25;;;;;;;7.60;3.15;;;;;;;;;;5092049;28;20535;-88
2021/03/30 00:46:52;;;;;;;8.18;2.80;;;;;;;;;;5074102;28;20049;-88
2021/03/30 00:49:19;;;;;;;5.55;2.55;;;;;;;;;;5090120;28;20051;-86
2021/03/30 00:51:47;;;;;;;6.22;2.55;;;;;;;;;;5085085;28;20036;-86
2021/03/30 00:54:14;;;;;;;6.45;2.70;;;;;;;;;;5091639;28;20036;-85
2021/03/30 00:56:40;;;;;;;8.73;2.67;;;;;;;;;;5073332;28;20606;-88
2021/03/30 00:59:06;;;;;;;5.70;2.63;;;;;;;;;;5083260;28;20048;-88
2021/03/30 01:01:32;;;;;;;6.35;2.95;;;;;;;;;;5088330;28;20045;-87
2021/03/30 01:03:58;;;;;;;5.70;2.97;;;;;;;;;;5088746;28;20072;-85
2021/03/30 01:06:24;;;;;;;6.20;3.28;;;;;;;;;;5089201;28;20043;-89
2021/03/30 01:09:03;;;;;;;6.20;2.63;;;;;;;;;;5089556;28;20478;-85
2021/03/30 01:11:36;;;;;;;5.82;3.15;;;;;;;;;;5086392;28;20447;-85
2021/03/30 01:14:12;;;;;;;7.25;3.53;;;;;;;;;;5090756;28;20047;-86
2021/03/30 01:16:40;;;;;;;6.90;2.42;;;;;;;;;;5092934;28;20420;-87
2021/03/30 01:19:17;;;;;;;6.22;2.47;;;;;;;;;;5092868;28;20048;-85
2021/03/30 01:22:03;;;;;;;4.57;2.60;;;;;;;;;;5090380;28;20040;-86
2021/03/30 01:24:31;;;;;;;6.88;2.58;;;;;;;;;;5089787;28;20049;-86
2021/03/30 01:27:00;;;;;;;4.72;2.30;;;;;;;;;;5088592;28;20105;-87
2021/03/30 01:29:43;;;;;;;5.38;3.00;;;;;;;;;;5083282;28;20043;-87
2021/03/30 01:32:28;;;;;;;5.35;2.58;;;;;;;;;;5084492;28;20401;-87
2021/03/30 01:34:57;;;;;;;7.50;3.00;;;;;;;;;;5095020;28;20040;-88
2021/03/30 01:37:24;;;;;;;6.22;2.72;;;;;;;;;;5089335;28;20041;-87
2021/03/30 01:39:52;;;;;;;4.13;2.55;;;;;;;;;;5088292;28;20504;-87
2021/03/30 01:42:21;;;;;;;6.65;3.42;;;;;;;;;;5089918;28;20043;-86
2021/03/30 01:44:48;;;;;;;5.47;2.58;;;;;;;;;;5085752;28;20051;-88
2021/03/30 01:47:14;;;;;;;4.53;2.80;;;;;;;;;;5087888;28;20045;-86
2021/03/30 01:49:40;;;;;;;5.80;3.05;;;;;;;;;;5083490;28;20056;-89
2021/03/30 01:52:10;;;;;;;7.35;3.25;;;;;;;;;;5082831;28;20040;-86
2021/03/30 01:54:38;;;;;;;6.20;2.60;;;;;;;;;;5087916;28;20518;-87
2021/03/30 01:57:06;;;;;;;6.25;2.50;;;;;;;;;;5087608;28;20516;-89
2021/03/30 01:59:32;;;;;;;6.25;3.50;;;;;;;;;;5085303;28;20040;-89
2021/03/30 02:02:00;;;;;;;9.27;3.33;;;;;;;;;;5083553;28;20040;-88
2021/03/30 02:04:26;;;;;;;6.57;2.90;;;;;;;;;;5092208;28;20051;-87
2021/03/30 02:06:53;;;;;;;7.00;2.97;;;;;;;;;;5086390;28;20044;-87
2021/03/30 02:09:23;;;;;;;7.60;3.25;;;;;;;;;;5092613;28;20094;-87
2021/03/30 02:11:52;;;;;;;9.88;4.47;;;;;;;;;;5087023;28;20044;-87
2021/03/30 02:14:18;;;;;;;4.72;3.05;;;;;;;;;;5085447;28;20059;-87
2021/03/30 02:16:51;;;;;;;6.63;3.30;;;;;;;;;;5081269;28;20541;-88
2021/03/30 02:19:21;;;;;;;9.48;3.20;;;;;;;;;;5085746;28;20069;-87
2021/03/30 02:21:50;;;;;;;5.90;3.13;;;;;;;;;;5080878;28;20492;-86
2021/03/30 02:24:17;;;;;;;6.78;3.00;;;;;;;;;;5087794;28;20404;-87
2021/03/30 02:26:46;;;;;;;8.60;3.30;;;;;;;;;;5086872;28;20048;-86
2021/03/30 02:29:16;;;;;;;4.97;2.83;;;;;;;;;;5083914;28;20047;-87
2021/03/30 02:31:43;;;;;;;7.35;2.88;;;;;;;;;;5092313;28;20040;-87
2021/03/30 02:34:09;;;;;;;5.80;3.08;;;;;;;;;;5087320;28;20050;-88
2021/03/30 02:36:36;;;;;;;5.15;2.78;;;;;;;;;;5085728;28;20507;-86
2021/03/30 02:39:06;;;;;;;4.97;2.60;;;;;;;;;;5087300;28;20044;-88
2021/03/30 02:41:33;;;;;;;8.90;3.33;;;;;;;;;;5086594;28;20094;-86
2021/03/30 02:43:59;;;;;;;8.07;3.47;;;;;;;;;;5092559;28;20044;-88
2021/03/30 02:46:26;;;;;;;7.28;3.00;;;;;;;;;;5089001;28;20040;-86
2021/03/30 02:48:53;;;;;;;6.10;3.17;;;;;;;;;;5090219;28;20040;-86
2021/03/30 02:51:21;;;;;;;4.97;2.72;;;;;;;;;;5089317;28;20051;-88
2021/03/30 02:53:49;;;;;;;6.15;2.92;;;;;;;;;;5089203;28;20050;-87
2021/03/30 02:56:15;;;;;;;6.95;2.60;;;;;;;;;;5087833;28;20052;-86
2021/03/30 02:58:41;;;;;;;6.38;3.38;;;;;;;;;;5084758;28;20044;-87
2021/03/30 03:01:07;;;;;;;6.32;2.92;;;;;;;;;;5084694;28;20484;-87
2021/03/30 03:03:34;;;;;;;6.63;2.78;;;;;;;;;;5086315;28;20179;-87
2021/03/30 03:06:01;;;;;;;4.78;3.05;;;;;;;;;;5089357;28;20138;-89
2021/03/30 03:08:28;;;;;;;6.03;2.85;;;;;;;;;;5084684;28;20053;-90
2021/03/30 03:10:55;;;;;;;6.25;3.65;;;;;;;;;;5086040;28;20041;-86
2021/03/30 03:13:21;;;;;;;6.57;2.88;;;;;;;;;;5086735;28;20059;-87
2021/03/30 03:15:47;;;;;;;5.82;3.00;;;;;;;;;;5082451;28;20056;-87
2021/03/30 03:18:15;;;;;;;5.60;2.97;;;;;;;;;;5086343;28;20058;-87
2021/03/30 03:20:41;;;;;;;6.45;2.88;;;;;;;;;;5086482;28;20040;-87
2021/03/30 03:23:07;;;;;;;6.53;3.22;;;;;;;;;;5084916;28;20434;-85
2021/03/30 03:25:34;;;;;;;7.13;3.83;;;;;;;;;;5087997;28;20048;-86
2021/03/30 03:28:01;;;;;;;6.45;3.65;;;;;;;;;;5087962;28;20051;-85
2021/03/30 03:30:28;;;;;;;6.18;3.08;;;;;;;;;;5084478;28;20048;-89
2021/03/30 03:33:05;;;;;;;5.95;3.03;;;;;;;;;;5086804;28;20048;-86
2021/03/30 03:35:31;;;;;;;4.75;3.05;;;;;;;;;;5090406;28;20091;-86
2021/03/30 03:37:57;;;;;;;6.97;2.80;;;;;;;;;;5085333;28;20127;-86
2021/03/30 03:40:23;;;;;;;9.50;4.25;;;;;;;;;;5086720;28;20078;-86
2021/03/30 03:42:49;;;;;;;8.07;3.17;;;;;;;;;;5088745;28;20040;-84
2021/03/30 03:45:16;;;;;;;5.90;2.70;;;;;;;;;;5088733;28;20097;-88
2021/03/30 03:47:42;;;;;;;7.45;3.28;;;;;;;;;;5089541;28;20453;-87
2021/03/30 03:50:09;;;;;;;7.72;3.08;;;;;;;;;;5085945;28;20048;-86
2021/03/30 03:52:37;;;;;;;4.18;2.72;;;;;;;;;;5084977;28;20048;-87
2021/03/30 03:55:06;;;;;;;7.93;4.05;;;;;;;;;;5082124;28;20098;-85
2021/03/30 03:57:35;;;;;;;6.95;3.00;;;;;;;;;;5094313;28;20044;-84
2021/03/30 04:00:04;;;;;;;6.28;3.08;;;;;;;;;;5092383;28;20059;-88
2021/03/30 04:02:36;;;;;;;6.07;3.10;;;;;;;;;;5095902;28;20039;-89
2021/03/30 04:05:05;;;;;;;7.45;3.30;;;;;;;;;;5085248;28;20045;-86
2021/03/30 04:07:35;;;;;;;5.20;3.17;;;;;;;;;;5086845;28;20492;-85
2021/03/30 04:10:03;;;;;;;4.93;2.80;;;;;;;;;;5089849;28;20044;-86
2021/03/30 04:12:31;;;;;;;6.70;3.42;;;;;;;;;;5090603;28;20041;-85
2021/03/30 04:14:58;;;;;;;7.15;3.60;;;;;;;;;;5087158;28;20193;-89
2021/03/30 04:17:24;;;;;;;5.85;2.83;;;;;;;;;;5093985;28;20483;-84
2021/03/30 04:19:51;;;;;;;6.45;2.80;;;;;;;;;;5090877;28;20040;-85
2021/03/30 04:22:17;;;;;;;6.70;3.40;;;;;;;;;;5089477;28;20047;-86
2021/03/30 04:24:44;;;;;;;6.47;3.08;;;;;;;;;;5091233;28;20040;-86
2021/03/30 04:27:11;;;;;;;6.80;2.83;;;;;;;;;;5084904;28;20044;-88
2021/03/30 04:29:37;;;;;;;6.10;3.45;;;;;;;;;;5087938;28;20045;-86
2021/03/30 04:32:03;;;;;;;5.65;3.30;;;;;;;;;;5093247;28;20059;-87
2021/03/30 04:34:29;;;;;;;5.53;3.83;;;;;;;;;;5088739;28;20519;-87
2021/03/30 04:36:56;;;;;;;7.80;2.92;;;;;;;;;;5090015;28;20049;-87
2021/03/30 04:39:22;;;;;;;6.50;3.00;;;;;;;;;;5093828;28;20102;-89
2021/03/30 04:41:48;;;;;;;6.75;4.20;;;;;;;;;;5090262;28;20121;-85
2021/03/30 04:44:14;;;;;;;7.20;2.80;;;;;;;;;;5088283;28;20480;-87
2021/03/30 04:46:40;;;;;;;6.13;3.17;;;;;;;;;;5088327;28;20121;-87
2021/03/30 04:49:06;;;;;;;5.03;3.03;;;;;;;;;;5092282;28;20051;-86
2021/03/30 04:51:32;;;;;;;10.95;3.03;;;;;;;;;;5092464;28;20044;-87
2021/03/30 04:53:59;;;;;;;13.88;3.97;;;;;;;;;;5083370;28;20051;-87
2021/03/30 04:56:25;;;;;;;13.40;3.97;;;;;;;;;;5087813;28;20052;-88
2021/03/30 04:58:51;;;;;;;6.18;3.45;;;;;;;;;;5092726;28;20186;-85
2021/03/30 05:01:17;;;;;;;10.30;4.65;;;;;;;;;;5089812;28;20473;-86
2021/03/30 05:03:42;;;;;;;4.78;2.85;;;;;;;;;;5090899;28;20048;-85
2021/03/30 05:06:08;;;;;;;6.25;3.03;;;;;;;;;;5085362;28;20545;-87
2021/03/30 05:08:35;;;;;;;5.68;3.22;;;;;;;;;;5089024;28;20052;-88
2021/03/30 05:11:01;;;;;;;8.35;2.97;;;;;;;;;;5088867;28;20047;-85
2021/03/30 05:13:27;;;;;;;12.10;3.80;;;;;;;;;;5092297;28;20051;-85
2021/03/30 05:15:53;;;;;;;11.20;4.63;;;;;;;;;;5093505;28;20051;-85
2021/03/30 05:18:19;;;;;;;7.43;3.00;;;;;;;;;;5089294;28;20542;-87
2021/03/30 05:20:45;;;;;;;8.43;4.05;;;;;;;;;;5090638;28;20124;-86
2021/03/30 05:23:12;;;;;;;8.23;3.03;;;;;;;;;;5088404;28;20041;-85
2021/03/30 05:25:38;;;;;;;5.40;3.17;;;;;;;;;;5086928;28;20612;-87
2021/03/30 05:28:05;;;;;;;5.13;2.90;;;;;;;;;;5085961;28;20040;-87
2021/03/30 05:30:32;;;;;;;8.70;3.53;;;;;;;;;;5090502;28;20040;-87
2021/03/30 05:32:58;;;;;;;10.23;4.00;;;;;;;;;;5092590;28;20096;-87
2021/03/30 05:35:24;;;;;;;6.72;3.20;;;;;;;;;;5091053;28;20048;-88
2021/03/30 05:37:50;;;;;;;7.72;3.50;;;;;;;;;;5089304;28;20052;-89
2021/03/30 05:40:18;;;;;;;10.05;4.07;;;;;;;;;;5088547;28;20484;-88
2021/03/30 05:42:45;;;;;;;4.80;3.25;;;;;;;;;;5092196;28;20047;-88
2021/03/30 05:45:15;;;;;;;7.20;3.33;;;;;;;;;;5085247;28;20040;-88
2021/03/30 05:47:42;;;;;;;10.85;3.97;;;;;;;;;;5091658;28;20071;-88
2021/03/30 05:50:12;;;;;;;20.15;4.05;;;;;;;;;;5087318;28;20044;-88
2021/03/30 05:52:46;;;;;;;6.45;3.60;;;;;;;;;;5091513;28;20078;-89
2021/03/30 05:55:17;;;;;;;5.20;3.17;;;;;;;;;;5084496;28;20087;-88
2021/03/30 05:57:44;;;;;;;6.25;3.35;;;;;;;;;;5088492;28;20040;-87
2021/03/30 06:00:13;;;;;;;10.68;4.78;;;;;;;;;;5082139;28;20047;-87
2021/03/30 06:02:41;;;;;;;4.88;3.00;;;;;;;;;;5092652;28;20053;-88
2021/03/30 06:05:08;;;;;;;11.45;5.40;;;;;;;;;;5090115;28;20048;-88
2021/03/30 06:07:36;;;;;;;8.63;4.50;;;;;;;;;;5093573;28;20048;-89
2021/03/30 06:10:05;;;;;;;9.57;4.10;;;;;;;;;;5090442;28;20082;-87
2021/03/30 06:12:31;;;;;;;8.65;3.40;;;;;;;;;;5090877;28;20044;-88
2021/03/30 06:15:02;;;;;;;10.18;3.22;;;;;;;;;;5084152;28;20070;-89
2021/03/30 06:17:39;;;;;;;5.80;3.55;;;;;;;;;;5094342;28;20059;-88
2021/03/30 06:20:08;;;;;;;7.18;3.05;;;;;;;;;;5087305;28;20602;-88
2021/03/30 06:22:46;;;;;;;7.28;3.47;;;;;;;;;;5074539;28;20039;-88
2021/03/30 06:25:12;;;;;;;5.25;3.45;;;;;;;;;;5091270;28;20144;-89
2021/03/30 06:27:39;;;;;;;8.32;3.72;;;;;;;;;;5087802;28;20668;-88
2021/03/30 06:30:09;;;;;;;9.98;3.33;;;;;;;;;;5083394;28;20158;-89
2021/03/30 06:32:36;;;;;;;6.30;3.15;;;;;;;;;;5084968;28;20105;-89
2021/03/30 06:35:20;;;;;;;5.68;2.90;;;;;;;;;;5085262;28;20396;-88
2021/03/30 06:37:48;;;;;;;8.10;3.00;;;;;;;;;;5089223;28;20051;-88
2021/03/30 06:40:27;;;;;;;11.00;3.60;;;;;;;;;;5085406;28;20076;-88
2021/03/30 06:42:55;;;;;;;6.85;3.35;;;;;;;;;;5087468;28;20056;-89
2021/03/30 06:45:23;;;;;;;8.93;3.58;;;;;;;;;;5094170;28;20044;-88
2021/03/30 06:47:52;;;;;;;7.70;5.03;;;;;;;;;;5095345;28;20040;-89
2021/03/30 06:50:21;;;;;;;8.43;3.20;;;;;;;;;;5091519;28;20131;-89
2021/03/30 06:52:49;;;;;;;7.43;3.50;;;;;;;;;;5093236;28;20132;-87
2021/03/30 06:55:26;;;;;;;11.63;3.72;;;;;;;;;;5088835;28;20413;-89
2021/03/30 06:57:58;;;;;;;10.70;3.40;;;;;;;;;;5087135;28;20044;-88
2021/03/30 07:00:31;;;;;;;9.50;3.35;;;;;;;;;;5088869;28;20068;-86
2021/03/30 07:02:59;;;;;;;14.63;3.80;;;;;;;;;;5093162;28;20193;-90
2021/03/30 07:05:28;;;;;;;16.33;4.30;;;;;;;;;;5086144;28;20499;-90
2021/03/30 07:07:56;;;;;;;12.65;4.65;;;;;;;;;;5086720;28;20083;-88
2021/03/30 07:10:23;;;;;;;12.73;4.00;;;;;;;;;;5093609;28;20048;-89
2021/03/30 07:12:50;;;;;;;6.85;3.70;;;;;;;;;;5090601;28;20384;-87
2021/03/30 07:15:17;;;;;;;10.60;4.30;;;;;;;;;;5088150;28;20062;-88
2021/03/30 07:17:48;;;;;;;9.30;3.65;;;;;;;;;;5093367;28;20048;-90
2021/03/30 07:20:17;;;;;;;7.63;3.88;;;;;;;;;;5090081;28;20048;-89
2021/03/30 07:22:47;;;;;;;7.78;3.50;;;;;;;;;;5088484;28;20048;-89
2021/03/30 07:25:18;;;;;;;7.22;4.70;;;;;;;;;;5089967;28;20052;-88
2021/03/30 07:27:58;;;;;;;6.13;3.40;;;;;;;;;;5088969;28;20071;-88
2021/03/30 07:30:24;;;;;;;6.40;3.45;;;;;;;;;;5095619;28;20114;-88
2021/03/30 07:33:03;;;;;;;13.48;3.50;;;;;;;;;;5093567;28;20040;-87
2021/03/30 07:35:34;;;;;;;8.70;3.58;;;;;;;;;;5096431;28;20067;-87
2021/03/30 07:38:09;;;;;;;14.13;3.65;;;;;;;;;;5099072;28;20066;-89
2021/03/30 07:40:37;;;;;;;8.60;4.68;;;;;;;;;;5090936;28;20076;-88
2021/03/30 07:43:05;;;;;;;9.25;4.22;;;;;;;;;;5102577;28;20061;-86
2021/03/30 07:45:33;;;;;;;9.88;4.15;;;;;;;;;;5099939;28;20036;-87
2021/03/30 07:48:03;;;;;;;13.02;4.25;;;;;;;;;;5099776;28;20141;-87
2021/03/30 07:50:59;;;;;;;9.65;4.10;;;;;;;;;;5095600;28;20146;-88
2021/03/30 07:53:43;;;;;;;9.02;4.45;;;;;;;;;;5095982;28;20044;-87
2021/03/30 07:56:11;;;;;;;9.27;3.85;;;;;;;;;;5087352;28;20411;-87
2021/03/30 07:58:41;;;;;;;11.63;4.60;;;;;;;;;;5090860;28;20048;-88
2021/03/30 08:01:08;;;;;;;18.92;5.47;;;;;;;;;;5092577;28;20094;-86
2021/03/30 08:03:35;;;;;;;11.63;4.43;;;;;;;;;;5090688;28;20491;-88
2021/03/30 08:06:21;;;;;;;8.57;5.70;;;;;;;;;;5087361;28;20036;-88
2021/03/30 08:08:52;;;;;;;10.70;4.47;;;;;;;;;;5086203;28;20048;-88
2021/03/30 08:11:45;;;;;;;15.90;5.35;;;;;;;;;;5093947;28;20047;-89
2021/03/30 08:14:12;;;;;;;9.07;4.80;;;;;;;;;;5086389;28;20075;-88
2021/03/30 08:16:40;;;;;;;6.97;4.25;;;;;;;;;;5092825;28;20050;-85
2021/03/30 08:19:07;;;;;;;8.32;4.63;;;;;;;;;;5089798;28;20599;-88
2021/03/30 08:21:52;;;;;;;7.72;5.10;;;;;;;;;;5086444;28;20040;-88
2021/03/30 08:24:18;;;;;;;8.98;4.80;;;;;;;;;;5089434;28;20063;-88
2021/03/30 08:26:45;;;;;;;11.70;4.97;;;;;;;;;;5092828;28;20094;-88
2021/03/30 08:29:12;;;;;;;10.25;5.03;;;;;;;;;;5085113;28;20048;-88
2021/03/30 08:31:40;;;;;;;6.95;5.07;;;;;;;;;;5090809;28;20048;-85
2021/03/30 08:34:13;;;;;;;11.77;4.85;;;;;;;;;;5085482;28;20132;-85
2021/03/30 08:36:47;;;;;;;11.50;5.35;;;;;;;;;;5085586;28;20045;-88
2021/03/30 08:39:32;;;;;;;9.65;5.38;;;;;;;;;;5089093;28;20040;-86
2021/03/30 08:42:00;;;;;;;12.32;5.55;;;;;;;;;;5088364;28;20052;-86
2021/03/30 08:44:42;;;;;;;10.57;6.47;;;;;;;;;;5088116;28;20568;-86
2021/03/30 08:47:08;;;;;;;12.43;5.22;;;;;;;;;;5082467;28;20044;-86
2021/03/30 08:49:37;;;;;;;12.35;5.75;;;;;;;;;;5088265;28;20048;-86
2021/03/30 08:52:06;;;;;;;11.63;5.90;;;;;;;;;;5086900;28;20048;-86
2021/03/30 08:54:34;;;;;;;13.43;6.78;;;;;;;;;;5083081;28;20041;-86
2021/03/30 08:57:02;;;;;;;10.50;6.35;;;;;;;;;;5087088;28;22807;-86
2021/03/30 08:59:31;;;;;;;10.93;5.50;;;;;;;;;;5084235;28;20052;-86
2021/03/30 09:02:14;;;;;;;10.60;5.65;;;;;;;;;;5092123;28;20141;-86
2021/03/30 09:04:43;;;;;;;11.20;6.10;;;;;;;;;;5086271;28;20480;-86
2021/03/30 09:07:10;;;;;;;12.07;5.68;;;;;;;;;;5091293;28;20048;-86
2021/03/30 09:10:18;;;;;;;;;;;;;;;;;;;;;
2021/03/30 09:13:12;;;;;;;10.63;5.47;;;;;;;;;;5014520;28;20044;-87
2021/03/30 09:15:48;;;;;;;;;;;;;;;;;;;;;
2021/03/30 09:18:33;;;;;;;;;;;;;;;;;;;;;
2021/03/30 09:21:21;;;;;;;11.00;6.00;;;;;;;;;;5071785;28;20071;-87
2021/03/30 09:23:48;;;;;;;14.00;5.68;;;;;;;;;;5082541;28;20056;-87
2021/03/30 09:26:16;;;;;;;9.00;5.07;;;;;;;;;;5083013;28;20041;-87
2021/03/30 09:28:44;;;;;;;13.05;5.35;;;;;;;;;;5086175;28;20060;-87
2021/03/30 09:31:12;;;;;;;11.43;4.57;;;;;;;;;;5045189;28;20503;-87
2021/03/30 09:33:42;;;;;;;7.68;4.55;;;;;;;;;;5084614;28;20145;-86
2021/03/30 09:36:22;;;;;;;;;;;;;;;;;;;;;
2021/03/30 09:38:51;;;;;;;5.50;3.72;;;;;;;;;;5081965;28;20056;-87
2021/03/30 09:41:37;;;;;;;6.43;3.42;;;;;;;;;;5070355;28;20076;-88
2021/03/30 09:44:17;;;;;;;;;;;;;;;;;;;;;
2021/03/30 09:47:03;;;;;;;;;;;;;;;;;;;;;
2021/03/30 09:49:33;;;;;;;7.43;4.10;;;;;;;;;;5083850;28;20445;-88
2021/03/30 09:52:16;;;;;;;10.23;4.72;;;;;;;;;;5090891;28;20052;-89
2021/03/30 09:54:44;;;;;;;10.77;4.35;;;;;;;;;;5084749;28;20052;-89
2021/03/30 09:57:15;;;;;;;7.57;4.13;;;;;;;;;;5086553;28;20052;-89
2021/03/30 09:59:54;;;;;;;6.68;3.80;;;;;;;;;;5090366;28;20063;-89
2021/03/30 10:02:26;;;;;;;10.30;4.57;;;;;;;;;;5075869;28;20056;-89
2021/03/30 10:05:00;;;;;;;13.00;4.65;;;;;;;;;;5069896;28;20067;-89
2021/03/30 10:07:52;;;;;;;7.72;4.35;;;;;;;;;;5068399;28;20051;-88
2021/03/30 10:10:20;;;;;;;6.32;4.20;;;;;;;;;;5087727;28;20052;-87
2021/03/30 10:12:55;;;;;;;10.35;4.90;;;;;;;;;;5068020;28;20052;-87
2021/03/30 10:15:32;;;;;;;13.95;5.68;;;;;;;;;;5083059;28;20121;-86
2021/03/30 10:18:01;;;;;;;10.13;4.93;;;;;;;;;;5084163;28;20067;-87
2021/03/30 10:20:30;;;;;;;10.20;4.60;;;;;;;;;;5074320;28;20138;-85
2021/03/30 10:23:00;;;;;;;9.57;5.20;;;;;;;;;;5087428;28;20066;-87
2021/03/30 10:25:44;;;;;;;;;;;;;;;;;;;;;
2021/03/30 10:28:30;;;;;;;10.23;4.88;;;;;;;;;;5086795;28;20096;-86
2021/03/30 10:31:05;;;;;;;10.77;5.28;;;;;;;;;;5064772;28;20051;-86
2021/03/30 10:33:57;;;;;;;12.02;5.75;;;;;;;;;;5063391;28;20120;-86
2021/03/30 10:36:39;;;;;;;;;;;;;;;;;;;;;
2021/03/30 10:39:07;;;;;;;11.98;5.45;;;;;;;;;;5070638;28;20044;-86
2021/03/30 10:41:36;;;;;;;8.63;5.07;;;;;;;;;;5083659;28;20048;-86
2021/03/30 10:44:03;;;;;;;17.45;6.32;;;;;;;;;;5086005;28;20055;-84
2021/03/30 10:46:40;;;;;;;11.43;5.22;;;;;;;;;;5087970;28;21308;-85
2021/03/30 10:49:07;;;;;;;8.82;5.35;;;;;;;;;;5068994;28;20052;-85
2021/03/30 10:51:36;;;;;;;7.97;5.75;;;;;;;;;;5086590;28;20045;-85
2021/03/30 10:54:07;;;;;;;8.00;6.10;;;;;;;;;;5082298;28;20068;-87
2021/03/30 10:56:36;;;;;;;9.93;5.60;;;;;;;;;;5069685;28;20070;-87
2021/03/30 10:59:07;;;;;;;13.65;5.45;;;;;;;;;;5071627;28;20044;-87
2021/03/30 11:01:37;;;;;;;10.50;6.00;;;;;;;;;;5053850;28;20048;-86
2021/03/30 11:04:07;;;;;;;7.07;5.35;;;;;;;;;;5089434;28;20570;-85
2021/03/30 11:06:35;;;;;;;8.93;5.68;;;;;;;;;;5089223;28;20046;-86
2021/03/30 11:09:02;;;;;;;8.23;5.95;;;;;;;;;;5092299;28;20044;-87
2021/03/30 11:11:35;;;;;;;7.07;5.65;;;;;;;;;;5070583;28;20052;-87
2021/03/30 11:14:08;;;;;;;10.88;5.78;;;;;;;;;;5090020;28;20044;-88
2021/03/30 11:16:49;;;;;;;8.45;5.00;;;;;;;;;;5072104;28;20044;-86
2021/03/30 11:19:25;;;;;;;9.13;5.93;;;;;;;;;;5091926;28;20068;-88
2021/03/30 11:22:04;;;;;;;8.18;5.97;;;;;;;;;;5093741;28;20055;-88
2021/03/30 11:24:39;;;;;;;8.55;5.30;;;;;;;;;;5091813;28;20055;-86
2021/03/30 11:27:07;;;;;;;8.35;5.25;;;;;;;;;;5092907;28;20051;-85
2021/03/30 11:29:40;;;;;;;7.85;5.05;;;;;;;;;;5090154;28;20044;-86
2021/03/30 11:32:23;;;;;;;9.00;5.25;;;;;;;;;;5091177;28;20052;-86
2021/03/30 11:34:55;;;;;;;6.75;5.45;;;;;;;;;;5092273;28;20048;-87
2021/03/30 11:37:35;;;;;;;7.97;6.07;;;;;;;;;;5095983;28;20049;-85
2021/03/30 11:40:02;;;;;;;8.82;5.63;;;;;;;;;;5096658;28;20051;-85
2021/03/30 11:42:28;;;;;;;9.00;5.50;;;;;;;;;;5090125;28;20331;-85
2021/03/30 11:44:54;;;;;;;7.35;5.18;;;;;;;;;;5104596;28;20103;-85
2021/03/30 11:47:21;;;;;;;10.73;5.65;;;;;;;;;;5100893;28;20078;-85
2021/03/30 11:49:47;;;;;;;9.27;5.10;;;;;;;;;;5097511;28;20044;-87
2021/03/30 11:52:14;;;;;;;8.00;6.38;;;;;;;;;;5087084;28;20048;-84
2021/03/30 11:54:41;;;;;;;7.40;5.43;;;;;;;;;;5089657;28;20045;-85
2021/03/30 11:57:16;;;;;;;11.02;5.28;;;;;;;;;;5090999;28;20056;-85
2021/03/30 11:59:44;;;;;;;8.73;5.27;;;;;;;;;;5091283;28;20110;-86
2021/03/30 12:02:12;;;;;;;17.33;6.13;;;;;;;;;;5091033;28;20098;-84
2021/03/30 12:05:23;;;;;;;;;;;;;;;;;;;;;
2021/03/30 12:08:17;;;;;;;7.00;4.95;;;;;;;;;;5032322;28;20061;-87
2021/03/30 12:14:03;;;;;;;6.28;5.00;;;;;;;;;;5033284;28;20045;-87
2021/03/30 12:16:50;;;;;;;7.60;5.22;;;;;;;;;;5034674;28;20556;-87
2021/03/30 12:25:39;;;;;;;;;;;;;;;;;;;;;
2021/03/30 12:29:10;;;;;;;;;;;;;;;;;;;;;
2021/03/30 12:32:30;;;;;;;;;;;;;;;;;;;;;
2021/03/30 12:34:59;;;;;;;5.80;3.95;;;;;;;;;;4951200;29;20070;-87
2021/03/30 12:38:14;;;;;;;;;;;;;;;;;;;;;
2021/03/30 12:41:21;;;;;;;;;;;;;;;;;;;;;
2021/03/30 12:44:25;;;;;;;7.93;4.00;;;;;;;;;;5026604;28;20059;-87
2021/03/30 12:47:30;;;;;;;;;;;;;;;;;;;;;
2021/03/30 12:50:25;;;;;;;;;;;;;;;;;;;;;
2021/03/30 12:53:31;;;;;;;7.00;4.05;;;;;;;;;;5026406;28;20049;-87
2021/03/30 12:56:02;;;;;;;7.57;3.80;;;;;;;;;;5061617;28;20051;-87
2021/03/30 12:58:44;;;;;;;6.30;4.40;;;;;;;;;;5089328;28;20056;-86
2021/03/30 13:02:02;;;;;;;7.30;4.07;;;;;;;;;;5090478;28;20048;-86
2021/03/30 13:05:13;;;;;;;6.75;3.60;;;;;;;;;;5089173;28;20056;-88
2021/03/30 13:29:38;;;;;;;5.55;2.92;;;;;;;;;;4897847;29;20083;-87
2021/03/30 13:32:29;;;;;;;7.13;4.18;;;;;;;;;;5007449;28;20049;-87
2021/03/30 13:35:23;;;;;;;4.70;3.78;;;;;;;;;;5033858;28;20041;-88
2021/03/30 13:41:22;;;;;;;7.18;3.90;;;;;;;;;;5047282;28;20044;-88
2021/03/30 13:57:22;;;;;;;;;;;;;;;;;;;;;
2021/03/30 14:00:28;;;;;;;;;;;;;;;;;;;;;
2021/03/30 14:02:55;;;;;;;7.70;4.90;;;;;;;;;;5026304;28;20401;-85
2021/03/30 14:05:34;;;;;;;8.68;5.32;;;;;;;;;;5024978;28;20128;-87
2021/03/30 14:08:07;;;;;;;6.60;5.10;;;;;;;;;;5018377;28;20040;-85
2021/03/30 14:10:43;;;;;;;10.10;4.82;;;;;;;;;;5086793;28;20496;-85
2021/03/30 14:13:13;;;;;;;6.70;4.95;;;;;;;;;;5090960;28;20111;-85
2021/03/30 14:15:45;;;;;;;7.40;5.35;;;;;;;;;;5069026;28;20051;-84
2021/03/30 14:18:38;;;;;;;7.07;5.47;;;;;;;;;;5071857;28;20040;-86
2021/03/30 14:21:07;;;;;;;9.02;5.30;;;;;;;;;;5089731;28;20086;-85
2021/03/30 14:24:07;;;;;;;;;;;;;;;;;;;;;
2021/03/30 14:27:02;;;;;;;9.15;5.25;;;;;;;;;;5091472;28;20132;-86
2021/03/30 14:29:29;;;;;;;7.20;5.40;;;;;;;;;;5089496;28;20055;-85
2021/03/30 14:31:59;;;;;;;7.35;5.57;;;;;;;;;;5092094;28;20052;-87
2021/03/30 14:34:39;;;;;;;7.72;4.93;;;;;;;;;;5090622;28;20409;-87
2021/03/30 14:37:25;;;;;;;7.22;4.72;;;;;;;;;;5091800;28;20070;-86
2021/03/30 14:40:15;;;;;;;6.15;4.53;;;;;;;;;;5064436;28;20048;-86
2021/03/30 14:42:49;;;;;;;7.13;4.47;;;;;;;;;;5091173;28;20051;-85
2021/03/30 14:53:59;;;;;;;7.60;3.55;;;;;;;;;;5085024;28;20067;-85
2021/03/30 14:56:28;;;;;;;7.63;4.95;;;;;;;;;;5070291;28;20052;-85
2021/03/30 14:58:57;;;;;;;8.00;5.25;;;;;;;;;;5084270;28;20048;-85
2021/03/30 15:01:36;;;;;;;8.38;5.22;;;;;;;;;;5070324;28;20484;-86
2021/03/30 15:04:06;;;;;;;5.13;4.35;;;;;;;;;;5086387;28;20086;-85
2021/03/30 15:06:44;;;;;;;;;;;;;;;;;;;;;
2021/03/30 15:09:16;;;;;;;8.43;3.88;;;;;;;;;;5072286;28;21445;-84
2021/03/30 15:11:43;;;;;;;18.33;5.15;;;;;;;;;;5091037;28;20165;-85
2021/03/30 15:14:10;;;;;;;14.25;5.38;;;;;;;;;;5067691;28;20480;-85
2021/03/30 15:16:36;;;;;;;11.32;4.13;;;;;;;;;;5090102;28;20044;-85
2021/03/30 15:19:17;;;;;;;;;;;;;;;;;;;;;
2021/03/30 15:21:45;;;;;;;17.75;4.40;;;;;;;;;;5078233;28;20497;-86
2021/03/30 15:24:25;;;;;;;6.80;3.20;;;;;;;;;;5080609;28;20052;-86
2021/03/30 15:26:54;;;;;;;12.02;4.70;;;;;;;;;;5086129;28;20045;-87
2021/03/30 15:29:23;;;;;;;8.88;3.50;;;;;;;;;;5065361;28;20089;-86
2021/03/30 15:31:51;;;;;;;13.55;4.28;;;;;;;;;;5058947;28;20054;-84
2021/03/30 15:34:25;;;;;;;7.65;3.95;;;;;;;;;;5066551;28;20514;-84
2021/03/30 15:36:51;;;;;;;7.53;4.35;;;;;;;;;;5050772;28;20044;-84
2021/03/30 15:39:18;;;;;;;7.07;3.90;;;;;;;;;;5088417;28;20487;-84
2021/03/30 15:41:44;;;;;;;5.63;3.75;;;;;;;;;;5087925;28;20044;-85
2021/03/30 15:44:16;;;;;;;6.93;3.80;;;;;;;;;;5090828;28;20087;-86
2021/03/30 15:49:26;;;;;;;7.10;4.15;;;;;;;;;;5073524;28;20518;-87
2021/03/30 15:51:54;;;;;;;6.28;3.17;;;;;;;;;;5075742;28;20416;-86
2021/03/30 15:54:57;;;;;;;6.97;4.07;;;;;;;;;;5089574;28;20049;-86
2021/03/30 15:57:25;;;;;;;8.48;4.55;;;;;;;;;;5080642;28;20084;-86
2021/03/30 16:00:03;;;;;;;6.40;3.65;;;;;;;;;;5084400;28;20529;-86
2021/03/30 16:02:31;;;;;;;5.15;3.70;;;;;;;;;;5086481;28;20048;-87
2021/03/30 16:04:58;;;;;;;5.65;3.40;;;;;;;;;;5091968;28;20048;-87
2021/03/30 16:07:30;;;;;;;6.72;3.80;;;;;;;;;;5051102;28;20056;-86
2021/03/30 16:09:59;;;;;;;7.55;4.65;;;;;;;;;;5083124;28;20046;-87
2021/03/30 16:12:26;;;;;;;6.25;3.38;;;;;;;;;;5084244;28;20045;-86
2021/03/30 16:14:54;;;;;;;7.20;4.15;;;;;;;;;;5088946;28;20044;-86
2021/03/30 16:17:20;;;;;;;6.05;2.70;;;;;;;;;;5069965;28;20044;-87
2021/03/30 16:19:46;;;;;;;5.15;3.80;;;;;;;;;;5070252;28;20052;-86
2021/03/30 16:22:15;;;;;;;6.43;3.50;;;;;;;;;;5074366;28;20043;-86
2021/03/30 16:24:41;;;;;;;6.82;3.75;;;;;;;;;;5070540;28;20048;-86
2021/03/30 16:27:08;;;;;;;7.10;3.47;;;;;;;;;;5088255;28;20056;-86
2021/03/30 16:29:36;;;;;;;6.30;3.55;;;;;;;;;;5094262;28;20060;-86